• Join FlightAware (Why Join?)
  • Login
  • US Flag 
05:33PM EDT


 

Airport Tracker/Info


-or-


 

Live Flight TrackerFlight Track Log ✈ FLG3388 ✈ 14-Oct-2013 ✈ KORD - KMEM

Flight Track Log - Related Links

Times and Time Zones

All times are in EDT time to prevent confusion due to time zone crossing. See the FLG3388 flight status page for this flight to view local times or setup timezone preferences in your user account.

Time Position Orientation Groundspeed Altitude Reporting Facility
EDT Latitude Longitude Course Direction KTS MPH feet Rate Location/Type
08:30AM 41.9000 -87.9167 192° South 186 214 3,000  Level Chicago TRACON
08:31AM 41.8500 -87.9500 206° Southwest 241 277 5,000 2,040 Climbing Chicago TRACON
08:32AM 41.8117 -87.9706 202° Southwest 234 269 6,400 2,760 Climbing Chicago Center
08:33AM 41.7372 -88.0000 196° South 276 318 9,600 2,820 Climbing Chicago Center
08:34AM 41.6536 -88.0125 186° South 305 351 12,300 2,520 Climbing Chicago Center
08:35AM 41.5408 -88.0206 183° South 338 389 14,900 2,280 Climbing Chicago Center
08:36AM 41.3750 -88.1051 192° South  Level Estimated
08:36AM 41.4547 -88.0267 183° South 350 403 17,100  Level Chicago Center
08:37AM 41.3289 -88.0567 190° South 368 423 19,100 1,860 Climbing Chicago Center
08:38AM 41.2244 -88.0922 194° South 383 441 21,000 1,920 Climbing Chicago Center
08:39AM 41.1161 -88.1231 192° South 395 455 23,100 1,740 Climbing Chicago Center
08:40AM 41.0050 -88.1558 193° South 405 466 24,700 1,500 Climbing Chicago Center
08:41AM 40.8981 -88.2100 201° Southwest 417 480 26,200 1,200 Climbing Chicago Center
08:42AM 40.7919 -88.2772 206° Southwest 423 487 27,300 1,200 Climbing Chicago Center
08:43AM 40.6597 -88.3586 205° Southwest 436 502 28,800 1,200 Climbing Chicago Center
08:44AM 40.5453 -88.4281 205° Southwest 449 517 29,900 1,440 Climbing Chicago Center
08:45AM 40.4319 -88.4964 205° Southwest 452 520 31,800 1,860 Climbing Chicago Center
08:46AM 40.3194 -88.5644 205° Southwest 434 499 33,800 1,020 Climbing Chicago Center
08:47AM 40.2108 -88.6300 205° Southwest 428 493 34,000 60 Climbing Chicago Center
08:48AM 40.0969 -88.6969 204° Southwest 440 506 34,000  Level Chicago Center
08:50AM 39.9800 -88.7672 205° Southwest 454 522 34,000  Level Chicago Center
08:51AM 39.8639 -88.8389 205° Southwest 458 527 34,100 600 Climbing Chicago Center
08:51AM 39.7700 -88.8925 204° Southwest 455 524 35,000 1,140 Climbing Kansas City Center
08:52AM 39.6561 -88.9608 205° Southwest 452 520 36,000 480 Climbing Kansas City Center
08:53AM 39.5458 -89.0250 204° Southwest 445 512 36,000  Level Kansas City Center
08:54AM 39.4342 -89.0897 204° Southwest 441 507 36,000  Level Kansas City Center
08:55AM 39.3233 -89.1553 205° Southwest 439 505 36,000  Level Kansas City Center
08:56AM 39.2172 -89.2200 205° Southwest 431 496 36,000  Level Kansas City Center
08:57AM 39.0967 -89.2906 204° Southwest 422 486 36,000  Level Kansas City Center
08:58AM 38.9894 -89.3528 204° Southwest 422 486 36,000  Level Kansas City Center
08:59AM 38.8836 -89.4133 204° Southwest 418 481 36,000  Level Kansas City Center
09:00AM 38.7703 -89.4792 204° Southwest 415 478 36,000  Level Kansas City Center
09:01AM 38.6650 -89.5397 204° Southwest 414 476 36,000  Level Kansas City Center
09:02AM 38.5589 -89.5994 204° Southwest 415 478 36,000  Level Kansas City Center
09:03AM 38.4514 -89.6603 204° Southwest 419 482 36,000  Level Kansas City Center
09:04AM 38.3456 -89.7214 204° Southwest 418 481 36,000 -540 Level Kansas City Center
09:06AM 38.2394 -89.7808 204° Southwest 416 479 35,000 -900 Descending Kansas City Center
09:07AM 38.1294 -89.8433 204° Southwest 425 489 34,200 -540 Descending Kansas City Center
09:08AM 38.0078 -89.9125 204° Southwest 441 507 34,000 -120 Descending Kansas City Center
09:09AM 37.8850 -89.9800 203° Southwest 446 513 34,000  Level Kansas City Center
09:10AM 37.7875 -90.0364 205° Southwest 447 514 34,000  Level Kansas City Center
09:11AM 37.6719 -90.1028 204° Southwest 452 520 34,000  Level Kansas City Center
09:12AM 37.5589 -90.1656 204° Southwest 450 518 34,000  Level Kansas City Center
09:13AM 37.4222 -90.2419 204° Southwest 441 507 34,000  Level Kansas City Center
09:14AM 37.3094 -90.3050 204° Southwest 442 509 34,000  Level Kansas City Center
09:15AM 37.1986 -90.3644 203° Southwest 439 505 34,000  Level Kansas City Center
09:16AM 37.0850 -90.4264 204° Southwest 440 506 34,000 -240 Level Kansas City Center
09:17AM 36.9650 -90.4817 200° South 453 521 33,600 -960 Descending Kansas City Center
09:17AM 36.8611 -90.4994 188° South 457 526 32,400 -1,560 Descending Memphis Center
09:18AM 36.7317 -90.5150 186° South 467 537 31,000 -1,740 Descending Memphis Center
09:19AM 36.6025 -90.5328 186° South 472 543 29,000 -2,040 Descending Memphis Center
09:20AM 36.4753 -90.5506 186° South 467 537 27,000 -2,040 Descending Memphis Center
09:21AM 36.3522 -90.5656 186° South 462 532 25,000 -2,040 Descending Memphis Center
09:22AM 36.2314 -90.5808 186° South 457 526 23,000 -2,040 Descending Memphis Center
09:23AM 36.1208 -90.5933 185° South 430 495 21,000 -2,040 Descending Memphis Center
09:24AM 36.0125 -90.6086 187° South 412 474 19,000 -1,860 Descending Memphis Center
09:25AM 35.9061 -90.6211 185° South 393 452 17,300 -1,620 Descending Memphis Center
09:26AM 35.8058 -90.6361 187° South 382 440 15,800 -1,320 Descending Memphis Center
09:27AM 35.7058 -90.6458 185° South 376 433 14,700 -1,080 Descending Memphis Center
09:28AM 35.6181 -90.6583 187° South 359 413 13,700 -1,080 Descending Memphis Center
09:29AM 35.5117 -90.6733 187° South 372 428 12,600 -1,140 Descending Memphis Center
09:30AM 35.4181 -90.6475 167° South 350 403 11,500 -1,140 Descending Memphis Center
09:31AM 35.3722 -90.5403 118° Southeast 314 361 10,400 -780 Descending Memphis Center
09:32AM 35.3222 -90.4436 122° Southeast 334 384 10,000 -240 Descending Memphis Center
09:33AM 35.2661 -90.3569 128° Southeast 313 360 10,000 -540 Level Memphis Center
09:34AM 35.2139 -90.2833 131° Southeast 301 346 9,000 -540 Descending Memphis Center
09:35AM 35.1719 -90.2147 127° Southeast 272 313 9,000  Level Memphis Center
09:36AM 35.1303 -90.1539 130° Southeast 248 285 9,000 -360 Level Memphis Center
09:37AM 35.1000 -90.1167 135° Southeast 235 270 8,400 -1,440 Descending KMEM
09:38AM 35.0333 -90.1000 168° South 230 265 6,500 -2,160 Descending KMEM
09:39AM 34.9667 -90.1000 180° South 220 253 3,900 -2,160 Descending KMEM
09:40AM 34.9000 -90.0833 168° South 207 238 2,000 -960 Descending KMEM
09:41AM 34.9167 -90.0333 68° East 201 231 2,000 -60 Level KMEM
09:42AM 34.9500 -89.9833 51° Northeast 198 228 1,900 -480 Descending KMEM
09:43AM 35.0000 -89.9833 360° North 155 178 1,100 -840 Descending KMEM
09:45AM 35.0333 -89.9667 129° Southeast  Level FlightAware Approximate
09:52AM 35.0424 -89.9767 129° Southeast  Level Estimated